sensor_id;sensor_type;location;lat;lon;timestamp;temperature;humidity
5576;DHT22;2810;50.134;8.626;2023-04-24T00:00:14;12.20;99.90
5576;DHT22;2810;50.134;8.626;2023-04-24T00:02:40;12.20;99.90
5576;DHT22;2810;50.134;8.626;2023-04-24T00:05:06;12.30;99.90
5576;DHT22;2810;50.134;8.626;2023-04-24T00:07:32;12.30;99.90
5576;DHT22;2810;50.134;8.626;2023-04-24T00:09:57;12.20;99.90
5576;DHT22;2810;50.134;8.626;2023-04-24T00:12:23;12.20;99.90
5576;DHT22;2810;50.134;8.626;2023-04-24T00:14:49;12.30;99.90
5576;DHT22;2810;50.134;8.626;2023-04-24T00:17:14;12.30;99.90
5576;DHT22;2810;50.134;8.626;2023-04-24T00:19:40;12.30;99.90
5576;DHT22;2810;50.134;8.626;2023-04-24T00:22:05;12.30;99.90
5576;DHT22;2810;50.134;8.626;2023-04-24T00:24:31;12.30;99.90
5576;DHT22;2810;50.134;8.626;2023-04-24T00:26:56;12.30;99.90
5576;DHT22;2810;50.134;8.626;2023-04-24T00:29:22;12.30;99.90
5576;DHT22;2810;50.134;8.626;2023-04-24T00:31:47;12.70;99.90
5576;DHT22;2810;50.134;8.626;2023-04-24T00:34:13;12.20;99.90
5576;DHT22;2810;50.134;8.626;2023-04-24T00:36:38;12.20;99.90
5576;DHT22;2810;50.134;8.626;2023-04-24T00:39:04;12.20;99.90
5576;DHT22;2810;50.134;8.626;2023-04-24T00:41:29;12.10;99.90
5576;DHT22;2810;50.134;8.626;2023-04-24T00:43:55;12.10;99.90
5576;DHT22;2810;50.134;8.626;2023-04-24T00:46:21;12.30;99.90
5576;DHT22;2810;50.134;8.626;2023-04-24T00:48:46;12.10;99.90
5576;DHT22;2810;50.134;8.626;2023-04-24T00:51:12;12.10;99.90
5576;DHT22;2810;50.134;8.626;2023-04-24T00:53:37;12.10;99.90
5576;DHT22;2810;50.134;8.626;2023-04-24T00:56:03;12.10;99.90
5576;DHT22;2810;50.134;8.626;2023-04-24T00:58:29;12.00;99.90
5576;DHT22;2810;50.134;8.626;2023-04-24T01:00:56;12.00;99.90
5576;DHT22;2810;50.134;8.626;2023-04-24T01:03:24;12.00;99.90
5576;DHT22;2810;50.134;8.626;2023-04-24T01:05:51;12.00;99.90
5576;DHT22;2810;50.134;8.626;2023-04-24T01:08:17;12.00;99.90
5576;DHT22;2810;50.134;8.626;2023-04-24T01:10:43;11.90;99.90
5576;DHT22;2810;50.134;8.626;2023-04-24T01:13:09;11.90;99.90
5576;DHT22;2810;50.134;8.626;2023-04-24T01:15:35;11.90;99.90
5576;DHT22;2810;50.134;8.626;2023-04-24T01:18:00;11.50;99.90
5576;DHT22;2810;50.134;8.626;2023-04-24T01:20:26;11.90;99.90
5576;DHT22;2810;50.134;8.626;2023-04-24T01:22:52;11.80;99.90
5576;DHT22;2810;50.134;8.626;2023-04-24T01:25:18;11.90;99.90
5576;DHT22;2810;50.134;8.626;2023-04-24T01:27:44;11.80;99.90
5576;DHT22;2810;50.134;8.626;2023-04-24T01:30:10;11.80;99.90
5576;DHT22;2810;50.134;8.626;2023-04-24T01:32:36;11.80;99.90
5576;DHT22;2810;50.134;8.626;2023-04-24T01:35:02;11.80;99.90
5576;DHT22;2810;50.134;8.626;2023-04-24T01:37:28;11.80;99.90
5576;DHT22;2810;50.134;8.626;2023-04-24T01:39:53;11.80;99.90
5576;DHT22;2810;50.134;8.626;2023-04-24T01:42:19;11.70;99.90
5576;DHT22;2810;50.134;8.626;2023-04-24T01:44:44;11.60;99.90
5576;DHT22;2810;50.134;8.626;2023-04-24T01:47:10;11.60;99.90
5576;DHT22;2810;50.134;8.626;2023-04-24T01:49:36;11.60;99.90
5576;DHT22;2810;50.134;8.626;2023-04-24T01:52:02;11.60;99.90
5576;DHT22;2810;50.134;8.626;2023-04-24T01:54:28;11.60;99.90
5576;DHT22;2810;50.134;8.626;2023-04-24T01:56:53;11.60;99.90
5576;DHT22;2810;50.134;8.626;2023-04-24T01:59:19;11.60;99.90
5576;DHT22;2810;50.134;8.626;2023-04-24T02:01:45;11.70;99.90
5576;DHT22;2810;50.134;8.626;2023-04-24T02:04:11;11.70;99.90
5576;DHT22;2810;50.134;8.626;2023-04-24T02:06:36;11.80;99.90
5576;DHT22;2810;50.134;8.626;2023-04-24T02:09:02;11.80;99.90
5576;DHT22;2810;50.134;8.626;2023-04-24T02:11:28;12.10;99.90
5576;DHT22;2810;50.134;8.626;2023-04-24T02:13:54;11.80;99.90
5576;DHT22;2810;50.134;8.626;2023-04-24T02:16:19;11.80;99.90
5576;DHT22;2810;50.134;8.626;2023-04-24T02:18:45;11.80;99.90
5576;DHT22;2810;50.134;8.626;2023-04-24T02:21:10;11.80;99.90
5576;DHT22;2810;50.134;8.626;2023-04-24T02:23:36;11.80;99.90
5576;DHT22;2810;50.134;8.626;2023-04-24T02:26:01;11.80;99.90
5576;DHT22;2810;50.134;8.626;2023-04-24T02:28:27;11.80;99.90
5576;DHT22;2810;50.134;8.626;2023-04-24T02:30:52;11.80;99.90
5576;DHT22;2810;50.134;8.626;2023-04-24T02:33:18;11.80;99.90
5576;DHT22;2810;50.134;8.626;2023-04-24T02:35:43;11.80;99.90
5576;DHT22;2810;50.134;8.626;2023-04-24T02:38:09;11.80;99.90
5576;DHT22;2810;50.134;8.626;2023-04-24T02:40:34;11.80;99.90
5576;DHT22;2810;50.134;8.626;2023-04-24T02:43:00;11.80;99.90
5576;DHT22;2810;50.134;8.626;2023-04-24T02:45:25;11.70;99.90
5576;DHT22;2810;50.134;8.626;2023-04-24T02:47:51;11.70;99.90
5576;DHT22;2810;50.134;8.626;2023-04-24T02:50:16;12.00;99.90
5576;DHT22;2810;50.134;8.626;2023-04-24T02:52:42;11.60;99.90
5576;DHT22;2810;50.134;8.626;2023-04-24T02:55:07;11.60;99.90
5576;DHT22;2810;50.134;8.626;2023-04-24T02:57:33;11.60;99.90
5576;DHT22;2810;50.134;8.626;2023-04-24T02:59:58;11.60;99.90
5576;DHT22;2810;50.134;8.626;2023-04-24T03:02:24;11.60;99.90
5576;DHT22;2810;50.134;8.626;2023-04-24T03:04:50;11.60;99.90
5576;DHT22;2810;50.134;8.626;2023-04-24T03:07:15;11.70;99.90
5576;DHT22;2810;50.134;8.626;2023-04-24T03:09:41;11.60;99.90
5576;DHT22;2810;50.134;8.626;2023-04-24T03:12:06;11.60;99.90
5576;DHT22;2810;50.134;8.626;2023-04-24T03:14:32;11.70;99.90
5576;DHT22;2810;50.134;8.626;2023-04-24T03:16:57;11.70;99.90
5576;DHT22;2810;50.134;8.626;2023-04-24T03:19:23;11.70;99.90
5576;DHT22;2810;50.134;8.626;2023-04-24T03:21:49;11.70;99.90
5576;DHT22;2810;50.134;8.626;2023-04-24T03:24:14;11.70;99.90
5576;DHT22;2810;50.134;8.626;2023-04-24T03:26:40;11.70;99.90
5576;DHT22;2810;50.134;8.626;2023-04-24T03:29:05;11.70;99.90
5576;DHT22;2810;50.134;8.626;2023-04-24T03:31:30;11.70;99.90
5576;DHT22;2810;50.134;8.626;2023-04-24T03:33:56;11.70;99.90
5576;DHT22;2810;50.134;8.626;2023-04-24T03:36:22;11.70;99.90
5576;DHT22;2810;50.134;8.626;2023-04-24T03:38:47;11.70;99.90
5576;DHT22;2810;50.134;8.626;2023-04-24T03:41:12;11.70;99.90
5576;DHT22;2810;50.134;8.626;2023-04-24T03:43:38;12.20;99.90
5576;DHT22;2810;50.134;8.626;2023-04-24T03:46:04;11.60;99.90
5576;DHT22;2810;50.134;8.626;2023-04-24T03:48:30;11.60;99.90
5576;DHT22;2810;50.134;8.626;2023-04-24T03:50:55;11.60;99.90
5576;DHT22;2810;50.134;8.626;2023-04-24T03:53:21;11.70;99.90
5576;DHT22;2810;50.134;8.626;2023-04-24T03:55:46;11.70;99.90
5576;DHT22;2810;50.134;8.626;2023-04-24T03:58:12;11.70;99.90
5576;DHT22;2810;50.134;8.626;2023-04-24T04:00:39;11.60;99.90
5576;DHT22;2810;50.134;8.626;2023-04-24T04:03:05;11.60;99.90
5576;DHT22;2810;50.134;8.626;2023-04-24T04:05:31;11.60;99.90
5576;DHT22;2810;50.134;8.626;2023-04-24T04:07:56;11.60;99.90
5576;DHT22;2810;50.134;8.626;2023-04-24T04:10:22;11.50;99.90
5576;DHT22;2810;50.134;8.626;2023-04-24T04:12:47;11.60;99.90
5576;DHT22;2810;50.134;8.626;2023-04-24T04:15:13;11.60;99.90
5576;DHT22;2810;50.134;8.626;2023-04-24T04:17:38;11.50;99.90
5576;DHT22;2810;50.134;8.626;2023-04-24T04:20:04;11.60;99.90
5576;DHT22;2810;50.134;8.626;2023-04-24T04:22:35;11.60;99.90
5576;DHT22;2810;50.134;8.626;2023-04-24T04:25:01;11.50;99.90
5576;DHT22;2810;50.134;8.626;2023-04-24T04:27:26;11.50;99.90
5576;DHT22;2810;50.134;8.626;2023-04-24T04:29:53;11.50;99.90
5576;DHT22;2810;50.134;8.626;2023-04-24T04:32:19;11.40;99.90
5576;DHT22;2810;50.134;8.626;2023-04-24T04:34:44;11.40;99.90
5576;DHT22;2810;50.134;8.626;2023-04-24T04:37:10;11.30;99.90
5576;DHT22;2810;50.134;8.626;2023-04-24T04:39:37;11.20;99.90
5576;DHT22;2810;50.134;8.626;2023-04-24T04:42:03;11.20;99.90
5576;DHT22;2810;50.134;8.626;2023-04-24T04:44:29;11.10;99.90
5576;DHT22;2810;50.134;8.626;2023-04-24T04:46:55;11.10;99.90
5576;DHT22;2810;50.134;8.626;2023-04-24T04:49:21;11.00;99.90
5576;DHT22;2810;50.134;8.626;2023-04-24T04:51:48;11.00;99.90
5576;DHT22;2810;50.134;8.626;2023-04-24T04:54:14;11.00;99.90
5576;DHT22;2810;50.134;8.626;2023-04-24T04:56:41;11.00;99.90
5576;DHT22;2810;50.134;8.626;2023-04-24T04:59:06;11.00;99.90
5576;DHT22;2810;50.134;8.626;2023-04-24T05:01:32;10.90;99.90
5576;DHT22;2810;50.134;8.626;2023-04-24T05:03:57;11.40;99.90
5576;DHT22;2810;50.134;8.626;2023-04-24T05:06:22;11.40;99.90
5576;DHT22;2810;50.134;8.626;2023-04-24T05:08:48;10.90;99.90
5576;DHT22;2810;50.134;8.626;2023-04-24T05:11:14;10.90;99.90
5576;DHT22;2810;50.134;8.626;2023-04-24T05:13:40;11.00;99.90
5576;DHT22;2810;50.134;8.626;2023-04-24T05:16:05;10.90;99.90
5576;DHT22;2810;50.134;8.626;2023-04-24T05:18:31;10.90;99.90
5576;DHT22;2810;50.134;8.626;2023-04-24T05:20:56;10.90;99.90
5576;DHT22;2810;50.134;8.626;2023-04-24T05:23:22;10.90;99.90
5576;DHT22;2810;50.134;8.626;2023-04-24T05:25:47;10.90;99.90
5576;DHT22;2810;50.134;8.626;2023-04-24T05:28:13;10.90;99.90
5576;DHT22;2810;50.134;8.626;2023-04-24T05:30:38;11.00;99.90
5576;DHT22;2810;50.134;8.626;2023-04-24T05:33:04;11.00;99.90
5576;DHT22;2810;50.134;8.626;2023-04-24T05:35:29;11.00;99.90
5576;DHT22;2810;50.134;8.626;2023-04-24T05:37:54;11.10;99.90
5576;DHT22;2810;50.134;8.626;2023-04-24T05:40:20;11.10;99.90
5576;DHT22;2810;50.134;8.626;2023-04-24T05:42:45;11.20;99.90
5576;DHT22;2810;50.134;8.626;2023-04-24T05:45:11;11.10;99.90
5576;DHT22;2810;50.134;8.626;2023-04-24T05:47:41;11.20;99.90
5576;DHT22;2810;50.134;8.626;2023-04-24T05:50:07;11.30;99.90
5576;DHT22;2810;50.134;8.626;2023-04-24T05:52:32;11.50;99.90
5576;DHT22;2810;50.134;8.626;2023-04-24T05:54:58;11.60;99.90
5576;DHT22;2810;50.134;8.626;2023-04-24T05:57:24;11.70;99.90
5576;DHT22;2810;50.134;8.626;2023-04-24T05:59:49;11.80;99.90
5576;DHT22;2810;50.134;8.626;2023-04-24T06:02:15;11.80;99.90
5576;DHT22;2810;50.134;8.626;2023-04-24T06:04:40;11.80;99.90
5576;DHT22;2810;50.134;8.626;2023-04-24T06:07:06;11.80;99.90
5576;DHT22;2810;50.134;8.626;2023-04-24T06:09:32;11.80;99.90
5576;DHT22;2810;50.134;8.626;2023-04-24T06:11:58;11.60;99.90
5576;DHT22;2810;50.134;8.626;2023-04-24T06:14:25;11.60;99.90
5576;DHT22;2810;50.134;8.626;2023-04-24T06:16:50;11.70;99.90
5576;DHT22;2810;50.134;8.626;2023-04-24T06:19:16;11.70;99.90
5576;DHT22;2810;50.134;8.626;2023-04-24T06:21:41;11.80;99.90
5576;DHT22;2810;50.134;8.626;2023-04-24T06:24:07;11.90;99.90
5576;DHT22;2810;50.134;8.626;2023-04-24T06:26:32;12.00;99.90
5576;DHT22;2810;50.134;8.626;2023-04-24T06:28:58;12.60;99.90
5576;DHT22;2810;50.134;8.626;2023-04-24T06:31:24;13.40;99.90
5576;DHT22;2810;50.134;8.626;2023-04-24T06:33:50;13.80;99.90
5576;DHT22;2810;50.134;8.626;2023-04-24T06:36:15;13.60;99.90
5576;DHT22;2810;50.134;8.626;2023-04-24T06:38:41;12.90;99.90
5576;DHT22;2810;50.134;8.626;2023-04-24T06:41:06;12.80;99.90
5576;DHT22;2810;50.134;8.626;2023-04-24T06:43:32;12.20;99.90
5576;DHT22;2810;50.134;8.626;2023-04-24T06:45:58;11.90;99.90
5576;DHT22;2810;50.134;8.626;2023-04-24T06:48:24;11.80;99.90
5576;DHT22;2810;50.134;8.626;2023-04-24T06:50:50;11.70;99.90
5576;DHT22;2810;50.134;8.626;2023-04-24T06:53:15;11.90;99.90
5576;DHT22;2810;50.134;8.626;2023-04-24T06:55:41;13.20;99.90
5576;DHT22;2810;50.134;8.626;2023-04-24T06:58:08;14.50;99.90
5576;DHT22;2810;50.134;8.626;2023-04-24T07:00:34;15.40;99.90
5576;DHT22;2810;50.134;8.626;2023-04-24T07:02:59;16.10;99.90
5576;DHT22;2810;50.134;8.626;2023-04-24T07:05:25;17.20;99.30
5576;DHT22;2810;50.134;8.626;2023-04-24T07:07:50;17.20;96.10
5576;DHT22;2810;50.134;8.626;2023-04-24T07:10:16;17.50;95.40
5576;DHT22;2810;50.134;8.626;2023-04-24T07:12:42;17.60;94.00
5576;DHT22;2810;50.134;8.626;2023-04-24T07:15:07;17.80;93.10
5576;DHT22;2810;50.134;8.626;2023-04-24T07:17:33;17.70;93.00
5576;DHT22;2810;50.134;8.626;2023-04-24T07:19:59;17.70;93.00
5576;DHT22;2810;50.134;8.626;2023-04-24T07:22:25;18.10;92.40
5576;DHT22;2810;50.134;8.626;2023-04-24T07:24:51;18.30;91.30
5576;DHT22;2810;50.134;8.626;2023-04-24T07:27:16;18.60;91.30
5576;DHT22;2810;50.134;8.626;2023-04-24T07:29:42;19.20;91.10
5576;DHT22;2810;50.134;8.626;2023-04-24T07:32:07;19.30;86.40
5576;DHT22;2810;50.134;8.626;2023-04-24T07:34:33;19.10;89.60
5576;DHT22;2810;50.134;8.626;2023-04-24T07:36:58;19.20;90.40
5576;DHT22;2810;50.134;8.626;2023-04-24T07:39:24;19.70;85.30
5576;DHT22;2810;50.134;8.626;2023-04-24T07:41:50;20.40;82.60
5576;DHT22;2810;50.134;8.626;2023-04-24T07:44:15;19.70;84.20
5576;DHT22;2810;50.134;8.626;2023-04-24T07:46:40;19.90;84.80
5576;DHT22;2810;50.134;8.626;2023-04-24T07:49:06;19.30;83.50
5576;DHT22;2810;50.134;8.626;2023-04-24T07:51:31;19.30;83.00
5576;DHT22;2810;50.134;8.626;2023-04-24T07:53:59;19.00;83.00
5576;DHT22;2810;50.134;8.626;2023-04-24T07:56:25;19.70;84.00
5576;DHT22;2810;50.134;8.626;2023-04-24T07:58:51;19.50;80.20
5576;DHT22;2810;50.134;8.626;2023-04-24T08:01:16;18.50;84.70
5576;DHT22;2810;50.134;8.626;2023-04-24T08:03:42;17.70;90.00
5576;DHT22;2810;50.134;8.626;2023-04-24T08:06:07;16.90;91.90
5576;DHT22;2810;50.134;8.626;2023-04-24T08:08:32;17.00;91.80
5576;DHT22;2810;50.134;8.626;2023-04-24T08:10:58;17.30;91.80
5576;DHT22;2810;50.134;8.626;2023-04-24T08:13:24;17.40;90.00
5576;DHT22;2810;50.134;8.626;2023-04-24T08:15:49;18.10;87.70
5576;DHT22;2810;50.134;8.626;2023-04-24T08:18:15;18.80;82.70
5576;DHT22;2810;50.134;8.626;2023-04-24T08:20:41;18.20;82.80
5576;DHT22;2810;50.134;8.626;2023-04-24T08:23:06;18.80;81.50
5576;DHT22;2810;50.134;8.626;2023-04-24T08:25:32;18.80;79.50
5576;DHT22;2810;50.134;8.626;2023-04-24T08:27:57;19.00;80.00
5576;DHT22;2810;50.134;8.626;2023-04-24T08:30:23;19.30;79.60
5576;DHT22;2810;50.134;8.626;2023-04-24T08:32:48;20.20;76.80
5576;DHT22;2810;50.134;8.626;2023-04-24T08:35:14;20.60;72.90
5576;DHT22;2810;50.134;8.626;2023-04-24T08:37:39;21.20;71.80
5576;DHT22;2810;50.134;8.626;2023-04-24T08:40:06;20.90;69.10
5576;DHT22;2810;50.134;8.626;2023-04-24T08:42:35;20.40;69.30
5576;DHT22;2810;50.134;8.626;2023-04-24T08:45:02;18.90;72.70
5576;DHT22;2810;50.134;8.626;2023-04-24T08:47:27;17.60;77.90
5576;DHT22;2810;50.134;8.626;2023-04-24T08:49:54;16.50;85.30
5576;DHT22;2810;50.134;8.626;2023-04-24T08:52:19;15.90;89.60
5576;DHT22;2810;50.134;8.626;2023-04-24T08:54:47;15.40;92.30
5576;DHT22;2810;50.134;8.626;2023-04-24T08:57:13;15.00;94.80
5576;DHT22;2810;50.134;8.626;2023-04-24T08:59:39;15.00;95.90
5576;DHT22;2810;50.134;8.626;2023-04-24T09:02:05;14.50;97.20
5576;DHT22;2810;50.134;8.626;2023-04-24T09:04:31;14.30;99.90
5576;DHT22;2810;50.134;8.626;2023-04-24T09:06:58;13.90;99.90
5576;DHT22;2810;50.134;8.626;2023-04-24T09:09:24;13.60;99.90
5576;DHT22;2810;50.134;8.626;2023-04-24T09:11:50;13.40;99.90
5576;DHT22;2810;50.134;8.626;2023-04-24T09:14:16;13.30;99.90
5576;DHT22;2810;50.134;8.626;2023-04-24T09:16:42;13.20;99.90
5576;DHT22;2810;50.134;8.626;2023-04-24T09:19:07;13.10;99.90
5576;DHT22;2810;50.134;8.626;2023-04-24T09:21:33;13.10;99.90
5576;DHT22;2810;50.134;8.626;2023-04-24T09:24:00;13.10;99.90
5576;DHT22;2810;50.134;8.626;2023-04-24T09:26:26;13.10;99.90
5576;DHT22;2810;50.134;8.626;2023-04-24T09:28:54;12.90;99.90
5576;DHT22;2810;50.134;8.626;2023-04-24T09:31:19;12.80;99.90
5576;DHT22;2810;50.134;8.626;2023-04-24T09:33:54;12.80;99.90
5576;DHT22;2810;50.134;8.626;2023-04-24T09:36:19;12.80;99.90
5576;DHT22;2810;50.134;8.626;2023-04-24T09:38:53;12.50;99.90
5576;DHT22;2810;50.134;8.626;2023-04-24T09:41:19;12.50;99.90
5576;DHT22;2810;50.134;8.626;2023-04-24T09:43:45;12.60;99.90
5576;DHT22;2810;50.134;8.626;2023-04-24T09:46:10;12.60;99.90
5576;DHT22;2810;50.134;8.626;2023-04-24T09:48:36;12.50;99.90
5576;DHT22;2810;50.134;8.626;2023-04-24T09:51:03;12.60;99.90
5576;DHT22;2810;50.134;8.626;2023-04-24T09:53:29;12.60;99.90
5576;DHT22;2810;50.134;8.626;2023-04-24T09:55:55;12.70;99.90
5576;DHT22;2810;50.134;8.626;2023-04-24T09:58:29;12.50;99.90
5576;DHT22;2810;50.134;8.626;2023-04-24T10:00:55;12.50;99.90
5576;DHT22;2810;50.134;8.626;2023-04-24T10:03:25;12.50;99.90
5576;DHT22;2810;50.134;8.626;2023-04-24T10:05:53;12.50;99.90
5576;DHT22;2810;50.134;8.626;2023-04-24T10:08:19;12.60;99.90
5576;DHT22;2810;50.134;8.626;2023-04-24T10:10:45;12.70;99.90
5576;DHT22;2810;50.134;8.626;2023-04-24T10:13:12;12.90;99.90
5576;DHT22;2810;50.134;8.626;2023-04-24T10:15:38;13.10;99.90
5576;DHT22;2810;50.134;8.626;2023-04-24T10:18:04;13.10;99.90
5576;DHT22;2810;50.134;8.626;2023-04-24T10:20:31;13.10;99.90
5576;DHT22;2810;50.134;8.626;2023-04-24T10:22:57;13.20;99.90
5576;DHT22;2810;50.134;8.626;2023-04-24T10:25:24;13.20;99.90
5576;DHT22;2810;50.134;8.626;2023-04-24T10:27:50;13.30;99.90
5576;DHT22;2810;50.134;8.626;2023-04-24T10:30:16;13.20;99.90
5576;DHT22;2810;50.134;8.626;2023-04-24T10:32:42;13.20;99.90
5576;DHT22;2810;50.134;8.626;2023-04-24T10:35:08;13.10;99.90
5576;DHT22;2810;50.134;8.626;2023-04-24T10:37:39;13.00;99.90
5576;DHT22;2810;50.134;8.626;2023-04-24T10:40:06;12.90;99.90
5576;DHT22;2810;50.134;8.626;2023-04-24T10:42:32;12.70;99.90
5576;DHT22;2810;50.134;8.626;2023-04-24T10:44:58;12.50;99.90
5576;DHT22;2810;50.134;8.626;2023-04-24T10:47:23;12.30;99.90
5576;DHT22;2810;50.134;8.626;2023-04-24T10:49:50;12.20;99.90
5576;DHT22;2810;50.134;8.626;2023-04-24T10:52:16;12.10;99.90
5576;DHT22;2810;50.134;8.626;2023-04-24T10:54:45;12.10;99.90
5576;DHT22;2810;50.134;8.626;2023-04-24T10:59:43;12.10;99.90
5576;DHT22;2810;50.134;8.626;2023-04-24T11:02:09;12.20;99.90
5576;DHT22;2810;50.134;8.626;2023-04-24T11:04:35;12.40;99.90
5576;DHT22;2810;50.134;8.626;2023-04-24T11:07:04;12.60;99.90
5576;DHT22;2810;50.134;8.626;2023-04-24T11:09:30;12.80;99.90
5576;DHT22;2810;50.134;8.626;2023-04-24T11:20:00;13.20;99.90
5576;DHT22;2810;50.134;8.626;2023-04-24T11:22:25;13.40;99.90
5576;DHT22;2810;50.134;8.626;2023-04-24T11:24:53;13.70;99.90
5576;DHT22;2810;50.134;8.626;2023-04-24T11:27:19;14.00;99.90
5576;DHT22;2810;50.134;8.626;2023-04-24T11:32:18;14.30;99.90
5576;DHT22;2810;50.134;8.626;2023-04-24T11:34:47;14.70;99.90
5576;DHT22;2810;50.134;8.626;2023-04-24T11:37:13;15.10;99.90
5576;DHT22;2810;50.134;8.626;2023-04-24T11:39:40;15.20;99.90
5576;DHT22;2810;50.134;8.626;2023-04-24T11:42:05;15.90;99.90
5576;DHT22;2810;50.134;8.626;2023-04-24T11:44:33;16.10;99.90
5576;DHT22;2810;50.134;8.626;2023-04-24T11:46:58;15.90;99.90
5576;DHT22;2810;50.134;8.626;2023-04-24T11:49:25;15.70;99.90
5576;DHT22;2810;50.134;8.626;2023-04-24T11:51:54;15.40;99.90
5576;DHT22;2810;50.134;8.626;2023-04-24T11:54:20;15.30;99.90
5576;DHT22;2810;50.134;8.626;2023-04-24T11:56:46;15.50;99.90
5576;DHT22;2810;50.134;8.626;2023-04-24T11:59:12;15.30;99.90
5576;DHT22;2810;50.134;8.626;2023-04-24T12:01:46;15.10;99.90
5576;DHT22;2810;50.134;8.626;2023-04-24T12:04:12;14.80;99.90
5576;DHT22;2810;50.134;8.626;2023-04-24T12:06:38;14.40;99.90
5576;DHT22;2810;50.134;8.626;2023-04-24T12:09:03;14.50;99.90
5576;DHT22;2810;50.134;8.626;2023-04-24T12:11:29;13.70;99.90
5576;DHT22;2810;50.134;8.626;2023-04-24T12:13:55;13.50;99.90
5576;DHT22;2810;50.134;8.626;2023-04-24T12:16:20;13.30;99.90
5576;DHT22;2810;50.134;8.626;2023-04-24T12:18:46;13.00;99.90
5576;DHT22;2810;50.134;8.626;2023-04-24T12:21:18;12.60;99.90
5576;DHT22;2810;50.134;8.626;2023-04-24T12:23:44;12.30;99.90
5576;DHT22;2810;50.134;8.626;2023-04-24T12:26:11;12.10;99.90
5576;DHT22;2810;50.134;8.626;2023-04-24T12:28:37;12.00;99.90
5576;DHT22;2810;50.134;8.626;2023-04-24T12:31:03;12.10;99.90
5576;DHT22;2810;50.134;8.626;2023-04-24T12:33:31;12.20;99.90
5576;DHT22;2810;50.134;8.626;2023-04-24T12:35:57;12.50;99.90
5576;DHT22;2810;50.134;8.626;2023-04-24T12:38:23;12.60;99.90
5576;DHT22;2810;50.134;8.626;2023-04-24T12:41:01;12.60;99.90
5576;DHT22;2810;50.134;8.626;2023-04-24T12:43:26;12.50;99.90
5576;DHT22;2810;50.134;8.626;2023-04-24T12:45:52;12.50;99.90
5576;DHT22;2810;50.134;8.626;2023-04-24T12:48:17;12.70;99.90
5576;DHT22;2810;50.134;8.626;2023-04-24T12:50:43;12.90;99.90
5576;DHT22;2810;50.134;8.626;2023-04-24T12:53:08;13.30;99.90
5576;DHT22;2810;50.134;8.626;2023-04-24T12:55:36;13.50;99.90
5576;DHT22;2810;50.134;8.626;2023-04-24T12:58:02;13.60;99.90
5576;DHT22;2810;50.134;8.626;2023-04-24T13:00:28;13.50;99.90
5576;DHT22;2810;50.134;8.626;2023-04-24T13:02:53;13.70;99.90
5576;DHT22;2810;50.134;8.626;2023-04-24T13:05:19;14.10;99.90
5576;DHT22;2810;50.134;8.626;2023-04-24T13:07:45;14.80;99.90
5576;DHT22;2810;50.134;8.626;2023-04-24T13:10:10;15.10;99.90
5576;DHT22;2810;50.134;8.626;2023-04-24T13:12:36;15.60;99.90
5576;DHT22;2810;50.134;8.626;2023-04-24T13:15:02;15.90;99.90
5576;DHT22;2810;50.134;8.626;2023-04-24T13:17:28;16.20;99.90
5576;DHT22;2810;50.134;8.626;2023-04-24T13:19:54;16.50;99.90
5576;DHT22;2810;50.134;8.626;2023-04-24T13:22:20;16.70;99.90
5576;DHT22;2810;50.134;8.626;2023-04-24T13:24:45;16.70;99.90
5576;DHT22;2810;50.134;8.626;2023-04-24T13:27:11;16.80;99.90
5576;DHT22;2810;50.134;8.626;2023-04-24T13:29:36;16.70;99.90
5576;DHT22;2810;50.134;8.626;2023-04-24T13:32:02;16.40;99.90
5576;DHT22;2810;50.134;8.626;2023-04-24T13:34:28;16.00;99.90
5576;DHT22;2810;50.134;8.626;2023-04-24T13:36:54;15.60;99.90
5576;DHT22;2810;50.134;8.626;2023-04-24T13:39:19;15.10;99.90
5576;DHT22;2810;50.134;8.626;2023-04-24T13:41:45;14.60;99.90
5576;DHT22;2810;50.134;8.626;2023-04-24T13:44:13;14.50;99.90
5576;DHT22;2810;50.134;8.626;2023-04-24T13:46:38;14.10;99.90
5576;DHT22;2810;50.134;8.626;2023-04-24T13:49:03;14.10;99.90
5576;DHT22;2810;50.134;8.626;2023-04-24T13:51:29;14.10;99.90
5576;DHT22;2810;50.134;8.626;2023-04-24T13:53:55;14.20;99.90
5576;DHT22;2810;50.134;8.626;2023-04-24T13:56:21;14.30;99.90
5576;DHT22;2810;50.134;8.626;2023-04-24T13:58:47;14.70;99.90
5576;DHT22;2810;50.134;8.626;2023-04-24T14:01:13;14.20;99.90
5576;DHT22;2810;50.134;8.626;2023-04-24T14:03:38;14.20;99.90
5576;DHT22;2810;50.134;8.626;2023-04-24T14:06:04;14.30;99.90
5576;DHT22;2810;50.134;8.626;2023-04-24T14:08:29;14.80;99.90
5576;DHT22;2810;50.134;8.626;2023-04-24T14:10:55;15.20;99.90
5576;DHT22;2810;50.134;8.626;2023-04-24T14:13:20;15.70;99.90
5576;DHT22;2810;50.134;8.626;2023-04-24T14:15:46;15.90;99.90
5576;DHT22;2810;50.134;8.626;2023-04-24T14:18:12;16.10;99.90
5576;DHT22;2810;50.134;8.626;2023-04-24T14:20:37;16.20;99.90
5576;DHT22;2810;50.134;8.626;2023-04-24T14:23:03;16.20;99.90
5576;DHT22;2810;50.134;8.626;2023-04-24T14:25:29;16.20;99.90
5576;DHT22;2810;50.134;8.626;2023-04-24T14:27:55;16.40;99.90
5576;DHT22;2810;50.134;8.626;2023-04-24T14:30:20;16.50;99.90
5576;DHT22;2810;50.134;8.626;2023-04-24T14:32:46;16.30;99.90
5576;DHT22;2810;50.134;8.626;2023-04-24T14:35:12;16.00;99.90
5576;DHT22;2810;50.134;8.626;2023-04-24T14:37:37;15.80;99.90
5576;DHT22;2810;50.134;8.626;2023-04-24T14:40:03;15.60;99.90
5576;DHT22;2810;50.134;8.626;2023-04-24T14:42:30;15.40;99.90
5576;DHT22;2810;50.134;8.626;2023-04-24T14:44:56;15.10;99.90
5576;DHT22;2810;50.134;8.626;2023-04-24T14:47:21;14.90;99.90
5576;DHT22;2810;50.134;8.626;2023-04-24T14:49:47;14.80;99.90
5576;DHT22;2810;50.134;8.626;2023-04-24T14:52:13;14.60;99.90
5576;DHT22;2810;50.134;8.626;2023-04-24T14:54:38;14.50;99.90
5576;DHT22;2810;50.134;8.626;2023-04-24T14:57:04;14.50;99.90
5576;DHT22;2810;50.134;8.626;2023-04-24T14:59:29;14.80;99.90
5576;DHT22;2810;50.134;8.626;2023-04-24T15:01:56;14.60;99.90
5576;DHT22;2810;50.134;8.626;2023-04-24T15:04:26;14.60;99.90
5576;DHT22;2810;50.134;8.626;2023-04-24T15:06:52;14.60;99.90
5576;DHT22;2810;50.134;8.626;2023-04-24T15:09:19;14.50;99.90
5576;DHT22;2810;50.134;8.626;2023-04-24T15:11:44;14.50;99.90
5576;DHT22;2810;50.134;8.626;2023-04-24T15:14:10;14.40;99.90
5576;DHT22;2810;50.134;8.626;2023-04-24T15:16:36;14.40;99.90
5576;DHT22;2810;50.134;8.626;2023-04-24T15:19:01;14.30;99.90
5576;DHT22;2810;50.134;8.626;2023-04-24T15:21:27;14.30;99.90
5576;DHT22;2810;50.134;8.626;2023-04-24T15:23:52;14.30;99.90
5576;DHT22;2810;50.134;8.626;2023-04-24T15:26:18;14.20;99.90
5576;DHT22;2810;50.134;8.626;2023-04-24T15:28:43;14.20;99.90
5576;DHT22;2810;50.134;8.626;2023-04-24T15:31:09;14.20;99.90
5576;DHT22;2810;50.134;8.626;2023-04-24T15:33:34;14.10;99.90
5576;DHT22;2810;50.134;8.626;2023-04-24T15:36:00;14.10;99.90
5576;DHT22;2810;50.134;8.626;2023-04-24T15:38:26;14.10;99.90
5576;DHT22;2810;50.134;8.626;2023-04-24T15:40:51;14.20;99.90
5576;DHT22;2810;50.134;8.626;2023-04-24T15:43:16;14.20;99.90
5576;DHT22;2810;50.134;8.626;2023-04-24T15:45:42;14.20;99.90
5576;DHT22;2810;50.134;8.626;2023-04-24T15:48:08;14.30;99.90
5576;DHT22;2810;50.134;8.626;2023-04-24T15:50:33;14.20;99.90
5576;DHT22;2810;50.134;8.626;2023-04-24T15:52:59;14.20;99.90
5576;DHT22;2810;50.134;8.626;2023-04-24T15:55:24;14.20;99.90
5576;DHT22;2810;50.134;8.626;2023-04-24T15:57:49;14.20;99.90
5576;DHT22;2810;50.134;8.626;2023-04-24T16:00:15;14.10;99.90
5576;DHT22;2810;50.134;8.626;2023-04-24T16:02:42;14.10;99.90
5576;DHT22;2810;50.134;8.626;2023-04-24T16:05:07;14.10;99.90